Time;durP1;ratioP1;P1;durP2;ratioP2;P2;SDS_P1;SDS_P2;PMS_P1;PMS_P2;Temp;Humidity;BMP_temperature;BMP_pressure;BME280_temperature;BME280_humidity;BME280_pressure;Samples;Min_cycle;Max_cycle;Signal;HPM_P1;HPM_P2
2022/02/04 00:24:46;;;;;;;12.18;7.88;;;;;;;;;;5070495;28;20088;-70
2022/02/04 00:27:31;;;;;;;10.98;6.60;;;;;;;;;;5071801;28;20028;-68
2022/02/04 00:30:23;;;;;;;12.88;8.52;;;;;;;;;;5071639;28;20510;-70
2022/02/04 00:33:10;;;;;;;12.85;7.72;;;;;;;;;;5072798;28;20767;-70
2022/02/04 00:36:03;;;;;;;11.10;7.68;;;;;;;;;;5057748;28;20485;-69
2022/02/04 00:38:52;;;;;;;14.57;8.52;;;;;;;;;;5071915;28;20635;-69
2022/02/04 00:41:40;;;;;;;12.00;8.10;;;;;;;;;;5071254;28;20085;-69
2022/02/04 00:44:28;;;;;;;13.55;8.20;;;;;;;;;;5072461;28;20048;-75
2022/02/04 00:47:21;;;;;;;12.68;7.88;;;;;;;;;;5071229;28;20062;-74
2022/02/04 00:50:18;;;;;;;10.88;7.97;;;;;;;;;;5072026;28;20043;-74
2022/02/04 00:53:11;;;;;;;10.60;7.10;;;;;;;;;;5071473;28;20036;-72
2022/02/04 01:26:42;;;;;;;11.35;7.55;;;;;;;;;;5072887;28;20040;-66
2022/02/04 01:29:32;;;;;;;11.40;8.05;;;;;;;;;;5073394;28;20043;-66
2022/02/04 01:32:18;;;;;;;13.32;8.48;;;;;;;;;;5070248;28;20086;-66
2022/02/04 01:35:03;;;;;;;13.27;8.32;;;;;;;;;;5075421;28;20071;-69
2022/02/04 01:37:49;;;;;;;14.70;9.15;;;;;;;;;;5075382;28;20047;-69
2022/02/04 01:40:34;;;;;;;13.95;8.43;;;;;;;;;;5075644;28;20043;-67
2022/02/04 01:43:22;;;;;;;11.57;7.85;;;;;;;;;;5074647;28;20028;-67
2022/02/04 01:46:09;;;;;;;26.63;8.52;;;;;;;;;;5075840;28;20043;-66
2022/02/04 01:48:54;;;;;;;12.15;8.80;;;;;;;;;;5073930;28;20063;-66
2022/02/04 01:51:39;;;;;;;11.15;7.40;;;;;;;;;;5075331;28;20032;-66
2022/02/04 01:54:24;;;;;;;12.00;8.07;;;;;;;;;;5074218;28;20695;-69
2022/02/04 01:57:10;;;;;;;12.35;8.73;;;;;;;;;;5069232;28;20056;-71
2022/02/04 01:59:55;;;;;;;12.73;9.13;;;;;;;;;;5074147;28;20090;-69
2022/02/04 02:02:40;;;;;;;11.88;8.55;;;;;;;;;;5071133;28;20505;-68
2022/02/04 02:05:25;;;;;;;12.45;8.10;;;;;;;;;;5073948;28;20469;-69
2022/02/04 02:08:12;;;;;;;13.50;8.43;;;;;;;;;;5072807;28;20482;-69
2022/02/04 02:10:57;;;;;;;14.55;8.70;;;;;;;;;;5072305;28;20138;-67
2022/02/04 02:13:51;;;;;;;12.85;8.48;;;;;;;;;;5063220;28;20470;-66
2022/02/04 02:33:00;;;;;;;14.70;8.82;;;;;;;;;;5075001;28;20063;-66
2022/02/04 02:53:27;;;;;;;14.85;7.47;;;;;;;;;;5063408;28;20032;-68
2022/02/04 02:59:08;;;;;;;12.32;8.23;;;;;;;;;;5069011;28;20024;-66
2022/02/04 03:01:54;;;;;;;14.35;8.50;;;;;;;;;;5072421;28;20111;-67
2022/02/04 03:04:39;;;;;;;11.30;8.43;;;;;;;;;;5073482;28;20060;-67
2022/02/04 03:07:24;;;;;;;11.85;7.47;;;;;;;;;;5068299;28;20054;-68
2022/02/04 03:10:09;;;;;;;11.55;8.45;;;;;;;;;;5074125;28;20047;-73
2022/02/04 03:12:55;;;;;;;12.60;8.70;;;;;;;;;;5072751;28;20082;-72
2022/02/04 03:15:40;;;;;;;10.73;7.60;;;;;;;;;;5073945;28;20039;-73
2022/02/04 03:18:28;;;;;;;11.85;8.35;;;;;;;;;;5071670;28;20058;-73
2022/02/04 03:21:17;;;;;;;12.13;7.38;;;;;;;;;;5073443;28;20359;-73
2022/02/04 03:24:10;;;;;;;11.32;7.38;;;;;;;;;;5071790;28;20068;-73
2022/02/04 03:27:02;;;;;;;11.55;7.53;;;;;;;;;;5073878;28;20083;-65
2022/02/04 03:30:05;;;;;;;13.90;8.32;;;;;;;;;;5071937;28;20032;-65
2022/02/04 03:32:55;;;;;;;13.77;7.82;;;;;;;;;;5072438;28;20379;-65
2022/02/04 03:35:40;;;;;;;10.95;7.65;;;;;;;;;;5072423;28;20028;-64
2022/02/04 03:38:25;;;;;;;10.75;8.10;;;;;;;;;;5072391;28;20110;-65
2022/02/04 03:41:11;;;;;;;12.35;6.78;;;;;;;;;;5073416;28;20115;-65
2022/02/04 03:43:57;;;;;;;10.30;6.53;;;;;;;;;;5071969;28;20566;-67
2022/02/04 03:46:42;;;;;;;10.10;6.88;;;;;;;;;;5059281;28;20062;-68
2022/02/04 03:49:27;;;;;;;10.10;6.75;;;;;;;;;;5071576;28;20044;-66
2022/02/04 03:52:12;;;;;;;12.13;7.60;;;;;;;;;;5072880;28;20051;-67
2022/02/04 03:54:58;;;;;;;10.45;6.50;;;;;;;;;;5071586;28;20066;-67
2022/02/04 03:57:43;;;;;;;11.60;7.38;;;;;;;;;;5070780;28;20075;-64
2022/02/04 04:00:28;;;;;;;10.50;6.82;;;;;;;;;;5072282;28;20340;-65
2022/02/04 04:03:13;;;;;;;9.95;7.03;;;;;;;;;;5073064;28;20040;-73
2022/02/04 04:05:58;;;;;;;11.00;7.20;;;;;;;;;;5077445;28;20359;-65
2022/02/04 04:08:44;;;;;;;12.02;7.72;;;;;;;;;;5072564;28;20066;-68
2022/02/04 04:11:29;;;;;;;10.32;6.63;;;;;;;;;;5072430;28;20067;-66
2022/02/04 04:14:16;;;;;;;10.35;6.43;;;;;;;;;;5072370;28;20489;-67
2022/02/04 04:17:01;;;;;;;12.55;7.07;;;;;;;;;;5073185;28;20111;-66
2022/02/04 04:19:47;;;;;;;8.88;6.18;;;;;;;;;;5071359;28;20031;-68
2022/02/04 04:22:32;;;;;;;9.35;5.40;;;;;;;;;;5073414;28;20031;-68
2022/02/04 04:25:18;;;;;;;9.32;6.38;;;;;;;;;;5071884;28;20110;-63
2022/02/04 04:28:03;;;;;;;9.52;6.72;;;;;;;;;;5073526;28;20493;-63
2022/02/04 04:30:48;;;;;;;9.95;6.85;;;;;;;;;;5068778;28;20032;-66
2022/02/04 04:33:34;;;;;;;10.05;5.80;;;;;;;;;;5068659;28;20535;-65
2022/02/04 04:36:20;;;;;;;10.35;6.13;;;;;;;;;;5071250;28;20032;-63
2022/02/04 04:42:29;;;;;;;8.73;6.13;;;;;;;;;;5070707;28;20085;-70
2022/02/04 04:45:56;;;;;;;10.07;6.35;;;;;;;;;;5071705;28;20032;-68
2022/02/04 05:28:27;;;;;;;8.93;6.32;;;;;;;;;;5075088;28;20024;-70
2022/02/04 05:31:12;;;;;;;10.20;6.35;;;;;;;;;;5075573;28;20035;-72
2022/02/04 05:33:58;;;;;;;10.25;6.93;;;;;;;;;;5074825;28;20028;-66
2022/02/04 05:36:46;;;;;;;10.50;6.30;;;;;;;;;;5067827;28;20035;-67
2022/02/04 05:39:57;;;;;;;9.27;6.82;;;;;;;;;;5056840;28;20036;-65
2022/02/04 05:42:44;;;;;;;8.55;5.32;;;;;;;;;;5088780;28;20039;-65
2022/02/04 05:45:33;;;;;;;9.15;5.80;;;;;;;;;;5075459;28;20101;-68
2022/02/04 05:48:19;;;;;;;12.50;6.55;;;;;;;;;;5072334;28;20039;-64
2022/02/04 05:51:34;;;;;;;8.43;5.75;;;;;;;;;;5075775;28;20040;-65
2022/02/04 05:57:05;;;;;;;11.63;5.97;;;;;;;;;;5062436;28;20032;-67
2022/02/04 06:00:15;;;;;;;9.95;7.43;;;;;;;;;;5059448;28;20028;-67
2022/02/04 06:06:01;;;;;;;10.43;6.97;;;;;;;;;;5083742;28;20066;-68
2022/02/04 06:23:34;;;;;;;9.60;6.65;;;;;;;;;;5070643;28;20036;-68
2022/02/04 06:26:20;;;;;;;9.73;6.30;;;;;;;;;;5074392;28;20032;-68
2022/02/04 06:29:07;;;;;;;10.57;6.50;;;;;;;;;;5074333;28;20032;-68
2022/02/04 06:31:52;;;;;;;8.93;6.63;;;;;;;;;;5074750;28;20535;-68
2022/02/04 06:34:37;;;;;;;8.77;6.07;;;;;;;;;;5073466;28;20751;-71
2022/02/04 06:37:23;;;;;;;10.73;6.30;;;;;;;;;;5072959;28;20055;-70
2022/02/04 06:40:08;;;;;;;9.75;7.10;;;;;;;;;;5073307;28;20100;-71
2022/02/04 06:42:55;;;;;;;8.20;6.05;;;;;;;;;;5074581;28;20028;-71
2022/02/04 06:45:40;;;;;;;11.07;7.13;;;;;;;;;;5072811;28;20020;-68
2022/02/04 06:48:25;;;;;;;12.32;7.70;;;;;;;;;;5070127;28;20531;-66
2022/02/04 06:51:11;;;;;;;10.73;6.47;;;;;;;;;;5059921;28;20119;-71
2022/02/04 06:53:56;;;;;;;10.25;6.30;;;;;;;;;;5056837;28;20085;-69
2022/02/04 06:56:41;;;;;;;10.68;7.10;;;;;;;;;;5059107;28;20183;-69
2022/02/04 06:59:26;;;;;;;11.63;7.43;;;;;;;;;;5061917;28;20028;-69
2022/02/04 07:02:12;;;;;;;10.73;6.40;;;;;;;;;;5071373;28;20375;-69
2022/02/04 07:04:57;;;;;;;10.32;7.43;;;;;;;;;;5070518;28;20123;-69
2022/02/04 07:07:50;;;;;;;10.43;6.47;;;;;;;;;;5057510;28;20079;-67
2022/02/04 07:10:59;;;;;;;12.23;7.15;;;;;;;;;;5085310;28;20052;-63
2022/02/04 07:16:36;;;;;;;9.73;7.18;;;;;;;;;;5065273;28;20028;-64
2022/02/04 07:22:27;;;;;;;11.68;7.70;;;;;;;;;;5072248;28;20028;-68
2022/02/04 07:25:12;;;;;;;11.85;6.93;;;;;;;;;;5071870;28;20413;-69
2022/02/04 07:27:57;;;;;;;11.25;7.55;;;;;;;;;;5070340;28;20047;-72
2022/02/04 07:30:43;;;;;;;10.73;7.13;;;;;;;;;;5070275;28;20089;-71
2022/02/04 07:33:43;;;;;;;12.55;7.82;;;;;;;;;;5071534;28;20039;-72
2022/02/04 07:42:36;;;;;;;10.30;7.50;;;;;;;;;;5071152;28;20115;-79
2022/02/04 07:45:22;;;;;;;12.00;7.80;;;;;;;;;;5072627;28;20458;-71
2022/02/04 07:48:08;;;;;;;10.02;7.10;;;;;;;;;;5068143;28;20508;-67
2022/02/04 07:50:53;;;;;;;11.30;7.10;;;;;;;;;;5057865;28;20044;-67
2022/02/04 07:53:38;;;;;;;11.45;7.15;;;;;;;;;;5072617;28;20106;-66
2022/02/04 07:56:24;;;;;;;9.93;7.07;;;;;;;;;;5070765;28;20113;-68
2022/02/04 08:02:15;;;;;;;11.65;7.53;;;;;;;;;;5066280;28;20055;-73
2022/02/04 08:05:04;;;;;;;9.07;6.70;;;;;;;;;;5070874;28;20581;-66
2022/02/04 08:07:59;;;;;;;11.55;7.30;;;;;;;;;;5071226;28;20046;-68
2022/02/04 08:10:54;;;;;;;11.73;7.15;;;;;;;;;;5070367;28;20044;-68
2022/02/04 08:26:16;;;;;;;10.38;7.25;;;;;;;;;;5075420;28;20028;-69
2022/02/04 08:48:00;;;;;;;11.75;7.03;;;;;;;;;;5077432;28;20039;-70
2022/02/04 08:54:04;;;;;;;14.07;8.30;;;;;;;;;;5075972;28;20032;-66
2022/02/04 09:02:43;;;;;;;10.32;7.03;;;;;;;;;;5072245;28;20046;-63
2022/02/04 09:05:38;;;;;;;10.20;8.10;;;;;;;;;;5074241;28;20039;-63
2022/02/04 09:08:29;;;;;;;11.05;7.50;;;;;;;;;;5073192;28;20077;-66
2022/02/04 09:11:37;;;;;;;11.70;7.50;;;;;;;;;;5073466;28;20047;-62
2022/02/04 09:18:15;;;;;;;10.05;6.82;;;;;;;;;;5073965;28;20559;-67
2022/02/04 09:20:57;;;;;;;10.63;6.25;;;;;;;;;;5071432;28;20028;-69
2022/02/04 09:23:40;;;;;;;10.88;6.18;;;;;;;;;;5073530;28;20071;-70
2022/02/04 09:26:25;;;;;;;9.13;6.18;;;;;;;;;;5074079;28;20028;-65
2022/02/04 09:29:11;;;;;;;10.20;6.45;;;;;;;;;;5075642;28;20488;-67
2022/02/04 09:31:56;;;;;;;8.60;5.75;;;;;;;;;;5071879;28;20048;-66
2022/02/04 09:34:41;;;;;;;12.88;6.32;;;;;;;;;;5073464;28;20631;-67
2022/02/04 09:37:27;;;;;;;9.65;6.35;;;;;;;;;;5073105;28;20402;-65
2022/02/04 09:40:13;;;;;;;9.52;5.60;;;;;;;;;;5075254;28;20486;-65
2022/02/04 09:42:58;;;;;;;9.55;5.45;;;;;;;;;;5074032;28;20372;-68
2022/02/04 09:45:44;;;;;;;5.22;4.07;;;;;;;;;;5075361;28;20032;-66
2022/02/04 09:48:30;;;;;;;8.35;4.18;;;;;;;;;;5073137;28;20498;-66
2022/02/04 09:51:19;;;;;;;5.50;3.80;;;;;;;;;;5080492;28;20051;-65
2022/02/04 10:15:01;;;;;;;4.65;2.88;;;;;;;;;;5072786;28;20028;-68
2022/02/04 10:18:01;;;;;;;4.90;3.08;;;;;;;;;;5071495;28;20533;-71
2022/02/04 10:20:46;;;;;;;;;;;;;;;;;;5065173;28;20040;-68
2022/02/04 10:23:43;;;;;;;5.07;3.05;;;;;;;;;;5070412;28;19915;-67
2022/02/04 10:26:29;;;;;;;5.30;3.22;;;;;;;;;;5075168;28;20036;-70
2022/02/04 10:29:19;;;;;;;4.13;2.70;;;;;;;;;;5073275;28;20694;-70
2022/02/04 10:32:05;;;;;;;3.83;2.58;;;;;;;;;;5074492;28;20034;-63
2022/02/04 10:34:59;;;;;;;4.72;2.58;;;;;;;;;;5071544;28;20088;-69
2022/02/04 10:38:24;;;;;;;5.63;2.72;;;;;;;;;;5074254;28;20028;-68
2022/02/04 10:41:24;;;;;;;5.80;2.78;;;;;;;;;;5069158;28;20047;-67
2022/02/04 10:44:24;;;;;;;5.40;2.83;;;;;;;;;;5070536;28;20044;-65
2022/02/04 10:47:09;;;;;;;7.80;3.38;;;;;;;;;;5073303;28;20031;-66
2022/02/04 10:50:11;;;;;;;3.97;2.60;;;;;;;;;;5067889;28;20039;-69
2022/02/04 11:05:04;;;;;;;3.47;2.40;;;;;;;;;;5072069;28;20081;-71
2022/02/04 11:11:35;;;;;;;2.75;1.88;;;;;;;;;;5072074;28;20550;-68
2022/02/04 11:48:05;;;;;;;3.47;1.98;;;;;;;;;;5071689;28;20058;-68
2022/02/04 11:54:43;;;;;;;2.30;1.60;;;;;;;;;;5072792;28;20052;-68
2022/02/04 11:57:03;;;;;;;3.30;2.28;;;;;;;;;;5061498;28;20042;-67
2022/02/04 11:59:48;;;;;;;2.53;1.70;;;;;;;;;;5073491;28;20036;-66
2022/02/04 12:02:34;;;;;;;3.65;2.22;;;;;;;;;;5060811;28;20090;-67
2022/02/04 12:05:20;;;;;;;2.58;1.60;;;;;;;;;;5056672;28;20078;-69
2022/02/04 12:08:17;;;;;;;6.82;2.72;;;;;;;;;;5070019;28;20060;-65
2022/02/04 12:11:03;;;;;;;1.75;1.20;;;;;;;;;;5071962;28;20124;-72
2022/02/04 12:14:10;;;;;;;1.52;1.42;;;;;;;;;;5069261;28;20050;-70
2022/02/04 12:17:03;;;;;;;2.28;1.60;;;;;;;;;;5068752;28;20035;-69
2022/02/04 12:19:52;;;;;;;2.42;1.48;;;;;;;;;;5071187;28;20040;-73
2022/02/04 12:22:48;;;;;;;3.10;1.60;;;;;;;;;;5066003;28;20032;-71
2022/02/04 12:25:52;;;;;;;2.83;1.40;;;;;;;;;;5069955;28;20119;-73
2022/02/04 12:28:41;;;;;;;1.75;1.25;;;;;;;;;;5056175;28;20067;-71
2022/02/04 12:31:27;;;;;;;2.35;1.65;;;;;;;;;;5070902;28;20043;-72
2022/02/04 12:34:13;;;;;;;2.63;1.63;;;;;;;;;;5069766;28;20105;-70
2022/02/04 12:36:59;;;;;;;5.53;2.30;;;;;;;;;;5071055;28;20039;-71
2022/02/04 12:39:44;;;;;;;1.85;1.40;;;;;;;;;;5068766;28;20028;-66
2022/02/04 12:42:29;;;;;;;1.77;1.40;;;;;;;;;;5070266;28;20067;-69
2022/02/04 12:45:15;;;;;;;1.70;1.45;;;;;;;;;;5070859;28;20032;-69
2022/02/04 12:48:04;;;;;;;3.28;1.23;;;;;;;;;;5071270;28;20036;-72
2022/02/04 12:50:53;;;;;;;2.10;1.48;;;;;;;;;;5069864;28;20040;-69
2022/02/04 12:53:41;;;;;;;1.23;1.10;;;;;;;;;;5066985;28;20047;-70
2022/02/04 12:56:43;;;;;;;3.85;1.55;;;;;;;;;;5071247;28;20077;-68
2022/02/04 13:11:00;;;;;;;1.85;1.23;;;;;;;;;;5073884;28;20036;-66
2022/02/04 13:13:48;;;;;;;2.30;1.50;;;;;;;;;;5076349;28;20048;-68
2022/02/04 13:16:35;;;;;;;3.28;1.90;;;;;;;;;;5060859;28;20027;-69
2022/02/04 13:19:20;;;;;;;2.83;1.58;;;;;;;;;;5060097;28;20032;-73
2022/02/04 13:22:06;;;;;;;1.45;1.35;;;;;;;;;;5073281;28;20048;-71
2022/02/04 13:25:09;;;;;;;2.70;1.60;;;;;;;;;;5076005;28;20043;-73
2022/02/04 13:28:03;;;;;;;2.97;1.40;;;;;;;;;;5073154;28;20035;-70
2022/02/04 13:30:48;;;;;;;2.58;1.50;;;;;;;;;;5071052;28;20448;-71
2022/02/04 13:33:42;;;;;;;1.63;1.35;;;;;;;;;;5074525;28;20034;-68
2022/02/04 13:36:43;;;;;;;3.65;1.85;;;;;;;;;;5073600;28;20612;-70
2022/02/04 13:42:29;;;;;;;1.45;1.30;;;;;;;;;;5073851;28;20121;-68
2022/02/04 13:45:28;;;;;;;3.67;1.35;;;;;;;;;;5073034;28;20036;-71
2022/02/04 13:48:25;;;;;;;3.17;1.47;;;;;;;;;;5073668;28;20419;-69
2022/02/04 13:51:26;;;;;;;1.48;1.38;;;;;;;;;;5073160;28;20055;-69
2022/02/04 13:54:55;;;;;;;1.70;1.20;;;;;;;;;;5073789;28;20042;-69
2022/02/04 13:57:35;;;;;;;2.90;1.52;;;;;;;;;;5074354;28;20024;-66
2022/02/04 14:00:43;;;;;;;3.88;1.60;;;;;;;;;;5074206;28;20044;-68
2022/02/04 14:03:30;;;;;;;2.67;1.48;;;;;;;;;;5072771;28;20036;-69
2022/02/04 14:06:20;;;;;;;3.15;1.58;;;;;;;;;;5075779;28;20034;-67
2022/02/04 14:09:13;;;;;;;1.98;1.50;;;;;;;;;;5067938;28;20101;-70
2022/02/04 14:12:12;;;;;;;2.33;1.48;;;;;;;;;;5055737;28;20036;-69
2022/02/04 14:14:58;;;;;;;;;;;;;;;;;;5057044;28;20040;-68
2022/02/04 14:17:43;;;;;;;2.28;1.45;;;;;;;;;;5057876;28;20375;-70
2022/02/04 14:20:28;;;;;;;3.92;1.50;;;;;;;;;;5069833;28;20028;-72
2022/02/04 14:23:14;;;;;;;1.92;1.20;;;;;;;;;;5068235;28;20127;-69
2022/02/04 14:26:11;;;;;;;3.22;1.88;;;;;;;;;;5071296;28;20038;-71
2022/02/04 14:29:04;;;;;;;3.65;1.30;;;;;;;;;;5070632;28;20099;-68
2022/02/04 14:31:57;;;;;;;2.40;1.40;;;;;;;;;;5082009;22;20431;-70
2022/02/04 14:52:51;;;;;;;3.28;1.48;;;;;;;;;;5071944;28;20028;-75
2022/02/04 15:01:33;;;;;;;2.35;1.08;;;;;;;;;;5053451;28;20036;-76
2022/02/04 15:04:35;;;;;;;1.90;1.20;;;;;;;;;;5052035;28;20033;-72
2022/02/04 15:07:21;;;;;;;1.52;1.17;;;;;;;;;;5065578;28;20036;-73
2022/02/04 15:10:12;;;;;;;2.15;1.20;;;;;;;;;;5052013;28;20045;-67
2022/02/04 15:13:00;;;;;;;1.05;0.90;;;;;;;;;;5052401;28;20036;-68
2022/02/04 15:15:46;;;;;;;1.85;1.25;;;;;;;;;;5053736;28;20025;-67
2022/02/04 15:18:31;;;;;;;1.45;1.10;;;;;;;;;;5052881;28;20115;-69
2022/02/04 15:21:18;;;;;;;1.52;0.93;;;;;;;;;;5053628;28;20028;-68
2022/02/04 15:24:04;;;;;;;1.77;1.20;;;;;;;;;;5053430;28;20386;-72
2022/02/04 15:26:50;;;;;;;1.27;1.10;;;;;;;;;;5053711;28;20082;-71
2022/02/04 15:29:41;;;;;;;1.38;1.00;;;;;;;;;;5051821;28;20452;-70
2022/02/04 15:32:29;;;;;;;2.15;0.98;;;;;;;;;;5053584;28;20067;-70
2022/02/04 15:35:14;;;;;;;1.75;0.88;;;;;;;;;;5054501;28;20028;-71
2022/02/04 15:38:00;;;;;;;1.23;0.70;;;;;;;;;;5057867;28;20025;-70
2022/02/04 15:40:47;;;;;;;1.55;0.80;;;;;;;;;;5052694;28;20124;-69
2022/02/04 15:43:32;;;;;;;3.15;1.50;;;;;;;;;;5055036;28;20037;-72
2022/02/04 15:49:20;;;;;;;1.25;0.88;;;;;;;;;;5053356;28;20021;-68
2022/02/04 15:52:38;;;;;;;1.73;1.15;;;;;;;;;;5053206;28;20392;-68
2022/02/04 15:55:31;;;;;;;2.63;1.42;;;;;;;;;;5053608;28;20402;-69
2022/02/04 15:58:35;;;;;;;3.15;1.50;;;;;;;;;;5052988;28;20056;-68
2022/02/04 16:04:22;;;;;;;2.53;1.30;;;;;;;;;;5052427;28;20037;-71
2022/02/04 16:07:07;;;;;;;4.10;1.40;;;;;;;;;;5037848;28;20043;-71
2022/02/04 16:10:13;;;;;;;1.63;0.90;;;;;;;;;;5051751;28;20395;-71
2022/02/04 16:13:14;;;;;;;5.47;2.50;;;;;;;;;;5052852;28;20036;-71
2022/02/04 16:16:08;;;;;;;1.23;1.02;;;;;;;;;;5052269;28;20490;-67
2022/02/04 16:19:02;;;;;;;2.20;1.23;;;;;;;;;;5053433;28;20111;-75
2022/02/04 16:30:19;;;;;;;7.03;1.30;;;;;;;;;;5052175;28;20032;-71
2022/02/04 16:33:05;;;;;;;2.38;1.00;;;;;;;;;;5053329;28;20029;-72
2022/02/04 16:35:51;;;;;;;0.90;0.88;;;;;;;;;;5038192;28;20116;-72
2022/02/04 16:38:37;;;;;;;4.32;1.33;;;;;;;;;;5051346;28;20463;-69
2022/02/04 16:41:31;;;;;;;3.58;1.33;;;;;;;;;;5051860;28;20078;-69
2022/02/04 16:44:17;;;;;;;1.20;1.05;;;;;;;;;;5039827;28;20135;-68
2022/02/04 16:47:03;;;;;;;2.40;0.85;;;;;;;;;;5055343;28;20108;-69
2022/02/04 16:49:49;;;;;;;2.00;1.27;;;;;;;;;;5056928;28;20037;-70
2022/02/04 16:52:34;;;;;;;2.10;1.20;;;;;;;;;;5056692;28;20120;-70
2022/02/04 16:55:21;;;;;;;1.95;1.08;;;;;;;;;;5056668;28;20112;-72
2022/02/04 16:58:07;;;;;;;1.13;1.00;;;;;;;;;;5054808;28;20387;-69
2022/02/04 17:00:52;;;;;;;2.03;1.13;;;;;;;;;;5055739;28;20033;-70
2022/02/04 17:03:38;;;;;;;1.70;1.00;;;;;;;;;;5040521;28;20033;-69
2022/02/04 17:06:26;;;;;;;1.35;1.10;;;;;;;;;;5055159;28;20446;-70
2022/02/04 17:12:03;;;;;;;2.10;1.10;;;;;;;;;;5055544;28;20486;-70
2022/02/04 17:14:48;;;;;;;2.28;1.25;;;;;;;;;;5056185;28;20151;-69
2022/02/04 17:17:34;;;;;;;3.22;1.40;;;;;;;;;;5055075;28;20044;-69
2022/02/04 17:20:20;;;;;;;0.95;0.85;;;;;;;;;;5055937;28;20031;-70
2022/02/04 17:23:09;;;;;;;1.45;1.00;;;;;;;;;;5055280;28;20028;-71
2022/02/04 17:25:57;;;;;;;2.20;1.40;;;;;;;;;;5055601;28;20025;-70
2022/02/04 17:28:42;;;;;;;2.15;1.10;;;;;;;;;;5055679;28;20264;-70
2022/02/04 17:31:28;;;;;;;1.67;1.20;;;;;;;;;;5056176;28;20032;-70
2022/02/04 17:34:16;;;;;;;1.58;1.20;;;;;;;;;;5055109;28;20027;-69
2022/02/04 17:37:02;;;;;;;1.83;1.08;;;;;;;;;;5053946;28;20112;-74
2022/02/04 17:39:51;;;;;;;2.13;1.15;;;;;;;;;;5039988;28;20452;-74
2022/02/04 17:42:39;;;;;;;1.48;1.00;;;;;;;;;;5054181;28;20163;-72
2022/02/04 17:45:25;;;;;;;2.33;1.30;;;;;;;;;;5054762;28;20040;-74
2022/02/04 17:48:36;;;;;;;1.95;1.20;;;;;;;;;;5056101;28;20029;-72
2022/02/04 17:51:35;;;;;;;2.20;1.17;;;;;;;;;;5067134;28;20033;-65
2022/02/04 17:54:31;;;;;;;;;;;;;;;;;;5054409;28;20483;-69
2022/02/04 17:57:31;;;;;;;2.08;1.20;;;;;;;;;;5054538;28;19913;-69
2022/02/04 18:06:25;;;;;;;1.60;0.98;;;;;;;;;;5054007;28;20112;-69
2022/02/04 18:09:11;;;;;;;1.48;1.13;;;;;;;;;;5054692;28;20040;-70
2022/02/04 18:11:56;;;;;;;2.67;1.10;;;;;;;;;;5053886;28;20033;-62
2022/02/04 18:14:45;;;;;;;2.42;1.30;;;;;;;;;;5054340;28;20052;-63
2022/02/04 18:17:31;;;;;;;1.85;1.20;;;;;;;;;;5053938;28;20063;-64
2022/02/04 18:20:16;;;;;;;2.00;1.13;;;;;;;;;;5053659;28;20031;-65
2022/02/04 18:23:02;;;;;;;1.70;1.17;;;;;;;;;;5054047;28;20527;-64
2022/02/04 18:25:49;;;;;;;3.53;1.40;;;;;;;;;;5054216;28;20104;-62
2022/02/04 18:28:34;;;;;;;2.70;1.58;;;;;;;;;;5054162;28;20097;-67
2022/02/04 18:31:20;;;;;;;2.47;1.40;;;;;;;;;;5053654;28;20375;-70
2022/02/04 18:34:05;;;;;;;3.50;1.60;;;;;;;;;;5053478;28;20405;-68
2022/02/04 18:36:54;;;;;;;5.95;2.80;;;;;;;;;;5053320;28;20043;-70
2022/02/04 18:42:58;;;;;;;4.10;1.85;;;;;;;;;;5053915;28;20040;-71
2022/02/04 18:45:49;;;;;;;2.97;1.40;;;;;;;;;;5054445;28;20490;-73
2022/02/04 18:48:45;;;;;;;1.40;1.13;;;;;;;;;;5053294;28;20021;-72
2022/02/04 18:54:43;;;;;;;2.88;1.77;;;;;;;;;;5053120;28;20471;-69
2022/02/04 18:57:29;;;;;;;2.42;1.63;;;;;;;;;;5055092;28;20126;-67
2022/02/04 19:00:17;;;;;;;2.85;1.40;;;;;;;;;;5053152;28;20025;-67
2022/02/04 19:03:07;;;;;;;4.25;1.40;;;;;;;;;;5054087;28;20119;-69
2022/02/04 19:08:55;;;;;;;2.20;1.02;;;;;;;;;;5053284;28;20132;-68
2022/02/04 19:11:51;;;;;;;2.42;1.50;;;;;;;;;;5053252;28;20029;-69
2022/02/04 19:17:46;;;;;;;2.42;1.45;;;;;;;;;;5053305;28;20428;-68
2022/02/04 19:23:25;;;;;;;2.28;1.50;;;;;;;;;;5053640;28;20104;-69
2022/02/04 19:26:16;;;;;;;3.05;1.58;;;;;;;;;;5051387;28;20068;-68
2022/02/04 19:29:01;;;;;;;2.67;1.48;;;;;;;;;;5051977;28;20112;-69
2022/02/04 19:31:55;;;;;;;3.05;1.67;;;;;;;;;;5053015;28;20377;-69
2022/02/04 19:34:41;;;;;;;2.45;1.50;;;;;;;;;;5052994;28;20021;-69
2022/02/04 19:37:26;;;;;;;3.30;1.52;;;;;;;;;;5054127;28;20047;-70
2022/02/04 19:40:12;;;;;;;2.20;1.50;;;;;;;;;;5052663;28;20035;-69
2022/02/04 19:42:58;;;;;;;2.10;1.58;;;;;;;;;;5053239;28;20032;-72
2022/02/04 19:45:50;;;;;;;3.67;1.67;;;;;;;;;;5039417;28;20059;-70
2022/02/04 19:48:41;;;;;;;2.33;1.30;;;;;;;;;;5038574;28;20032;-69
2022/02/04 19:51:46;;;;;;;2.47;1.50;;;;;;;;;;5055481;28;20483;-69
2022/02/04 20:25:01;;;;;;;2.70;1.10;;;;;;;;;;5055718;28;20025;-70
2022/02/04 20:27:47;;;;;;;2.07;1.20;;;;;;;;;;5056276;28;20037;-71
2022/02/04 20:30:32;;;;;;;1.00;0.90;;;;;;;;;;5055131;28;20119;-70
2022/02/04 20:33:18;;;;;;;2.08;1.15;;;;;;;;;;5055712;28;20090;-71
2022/02/04 20:36:04;;;;;;;1.58;1.13;;;;;;;;;;5055784;28;20120;-69
2022/02/04 20:38:51;;;;;;;1.02;0.80;;;;;;;;;;5055413;28;20044;-69
2022/02/04 20:41:37;;;;;;;1.58;1.10;;;;;;;;;;5055728;28;20096;-63
2022/02/04 20:44:22;;;;;;;1.20;0.90;;;;;;;;;;5056098;28;20446;-63
2022/02/04 20:47:08;;;;;;;1.42;1.15;;;;;;;;;;5056571;28;20442;-64
2022/02/04 20:49:54;;;;;;;3.40;1.75;;;;;;;;;;5056043;28;20060;-63
2022/02/04 20:52:39;;;;;;;1.88;1.20;;;;;;;;;;5056310;28;20032;-62
2022/02/04 20:55:25;;;;;;;3.08;1.25;;;;;;;;;;5056425;28;20029;-68
2022/02/04 20:58:11;;;;;;;2.00;1.17;;;;;;;;;;5054389;28;20052;-63
2022/02/04 21:00:57;;;;;;;1.95;1.10;;;;;;;;;;5054898;28;20033;-64
2022/02/04 21:03:43;;;;;;;1.40;0.90;;;;;;;;;;5041637;28;20164;-62
2022/02/04 21:06:41;;;;;;;2.70;1.27;;;;;;;;;;5056119;28;20029;-62
2022/02/04 21:15:35;;;;;;;1.98;1.10;;;;;;;;;;5054914;28;20456;-71
2022/02/04 21:18:21;;;;;;;0.98;0.85;;;;;;;;;;5054579;28;20033;-69
2022/02/04 21:21:07;;;;;;;2.00;1.17;;;;;;;;;;5055455;28;20420;-70
2022/02/04 21:23:56;;;;;;;4.60;1.80;;;;;;;;;;5055617;28;20076;-70
2022/02/04 21:26:43;;;;;;;;;;;;;;;;;;5041070;28;20395;-71
2022/02/04 21:29:29;;;;;;;2.25;1.17;;;;;;;;;;5041156;28;19962;-70
2022/02/04 21:32:15;;;;;;;2.50;1.20;;;;;;;;;;5054628;28;20029;-70
2022/02/04 21:38:05;;;;;;;0.93;0.82;;;;;;;;;;5054596;28;20041;-63
2022/02/04 21:40:50;;;;;;;5.63;1.20;;;;;;;;;;5055020;28;20068;-64
2022/02/04 21:43:38;;;;;;;1.10;0.88;;;;;;;;;;5055307;28;20383;-62
2022/02/04 21:46:27;;;;;;;2.55;1.25;;;;;;;;;;5055557;28;20032;-62
2022/02/04 21:49:12;;;;;;;2.47;0.90;;;;;;;;;;5054665;28;20066;-62
2022/02/04 21:52:00;;;;;;;2.88;1.10;;;;;;;;;;5055255;28;20029;-68
2022/02/04 21:54:45;;;;;;;1.77;1.15;;;;;;;;;;5040037;28;20128;-62
2022/02/04 21:57:31;;;;;;;1.67;1.10;;;;;;;;;;5053904;28;20090;-63
2022/02/04 22:00:16;;;;;;;1.77;1.38;;;;;;;;;;5053644;28;20043;-63
2022/02/04 22:03:05;;;;;;;1.05;0.80;;;;;;;;;;5055915;28;20414;-63
2022/02/04 22:05:51;;;;;;;2.28;1.17;;;;;;;;;;5055056;28;20029;-61
2022/02/04 22:23:17;;;;;;;0.75;0.75;;;;;;;;;;5053734;28;20033;-69
2022/02/04 22:26:03;;;;;;;1.13;0.70;;;;;;;;;;5053529;28;20068;-67
2022/02/04 22:28:53;;;;;;;1.20;0.82;;;;;;;;;;5055265;28;20057;-63
2022/02/04 22:31:39;;;;;;;;;;;;;;;;;;5052719;28;20036;-67
2022/02/04 22:34:39;;;;;;;0.65;0.65;;;;;;;;;;5066537;28;19916;-70
2022/02/04 22:52:05;;;;;;;3.05;1.50;;;;;;;;;;5053622;28;20094;-68
2022/02/04 22:57:44;;;;;;;2.63;1.27;;;;;;;;;;5054210;28;20116;-70
2022/02/04 23:00:38;;;;;;;1.95;1.73;;;;;;;;;;5052056;28;20021;-67
2022/02/04 23:03:30;;;;;;;1.57;1.00;;;;;;;;;;5053267;28;20040;-69
2022/02/04 23:06:22;;;;;;;1.15;1.00;;;;;;;;;;5053389;28;20039;-63
2022/02/04 23:09:10;;;;;;;2.28;1.30;;;;;;;;;;5053203;28;20067;-72
2022/02/04 23:11:56;;;;;;;1.25;0.98;;;;;;;;;;5052654;28;20099;-72
2022/02/04 23:15:06;;;;;;;3.05;2.25;;;;;;;;;;5039165;28;20056;-72
2022/02/04 23:18:04;;;;;;;1.75;1.05;;;;;;;;;;5053106;28;20091;-71
2022/02/04 23:20:53;;;;;;;1.63;1.00;;;;;;;;;;5053718;28;20460;-71
2022/02/04 23:23:39;;;;;;;2.22;1.27;;;;;;;;;;5053359;28;20036;-71
2022/02/04 23:26:39;;;;;;;1.25;1.15;;;;;;;;;;5052886;28;20033;-71
2022/02/04 23:29:38;;;;;;;1.95;1.13;;;;;;;;;;5054750;28;20037;-71
2022/02/04 23:50:32;;;;;;;3.05;1.10;;;;;;;;;;5052831;28;20025;-63
2022/02/04 23:53:18;;;;;;;0.93;0.90;;;;;;;;;;5051514;28;20028;-63
2022/02/04 23:56:03;;;;;;;2.72;1.42;;;;;;;;;;5052621;28;20415;-63
